createdAt,value
2017-03-26T00:00:06.992Z,942.0
2017-03-26T00:01:14.904Z,942.1
2017-03-26T00:02:22.987Z,942.1
2017-03-26T00:03:31.579Z,942.0
2017-03-26T00:04:39.158Z,942.0
2017-03-26T00:05:47.249Z,942.0
2017-03-26T00:06:55.331Z,941.9
2017-03-26T00:08:03.417Z,942.0
2017-03-26T00:09:11.558Z,942.0
2017-03-26T00:10:19.758Z,942.0
2017-03-26T00:11:27.843Z,942.0
2017-03-26T00:12:36.268Z,942.1
2017-03-26T00:13:43.845Z,942.1
2017-03-26T00:14:51.990Z,942.0
2017-03-26T00:16:00.024Z,942.0
2017-03-26T00:17:08.152Z,942.1
2017-03-26T00:18:16.199Z,942.0
2017-03-26T00:19:24.285Z,942.1
2017-03-26T00:20:32.430Z,942.1
2017-03-26T00:21:40.529Z,942.1
2017-03-26T00:22:48.549Z,942.0
2017-03-26T00:23:56.634Z,942.0
2017-03-26T00:25:04.718Z,942.0
2017-03-26T00:26:12.899Z,942.1
2017-03-26T00:27:20.928Z,942.1
2017-03-26T00:28:29.520Z,942.0
2017-03-26T00:29:37.067Z,942.1
2017-03-26T00:30:45.155Z,942.0
2017-03-26T00:31:53.294Z,942.1
2017-03-26T00:33:01.526Z,942.1
2017-03-26T00:34:09.411Z,942.1
2017-03-26T00:35:17.498Z,942.0
2017-03-26T00:36:25.577Z,942.0
2017-03-26T00:37:33.724Z,942.0
2017-03-26T00:38:41.754Z,942.1
2017-03-26T00:39:49.845Z,942.0
2017-03-26T00:40:57.924Z,942.1
2017-03-26T00:42:06.017Z,942.1
2017-03-26T00:43:14.783Z,942.1
2017-03-26T00:44:22.247Z,942.2
2017-03-26T00:45:30.279Z,942.1
2017-03-26T00:46:38.365Z,942.1
2017-03-26T00:47:46.500Z,942.0
2017-03-26T00:48:54.594Z,942.1
2017-03-26T00:50:02.632Z,942.0
2017-03-26T00:51:10.718Z,942.1
2017-03-26T00:52:18.803Z,942.1
2017-03-26T00:53:26.988Z,942.1
2017-03-26T00:54:35.576Z,942.1
2017-03-26T00:55:43.058Z,942.0
2017-03-26T00:56:51.145Z,942.0
2017-03-26T00:57:59.238Z,942.0
2017-03-26T00:59:07.323Z,942.0
2017-03-26T01:00:15.526Z,942.0
2017-03-26T01:01:23.497Z,941.9
2017-03-26T01:02:31.586Z,942.0
2017-03-26T01:03:39.672Z,942.0
2017-03-26T01:04:47.794Z,941.9
2017-03-26T01:05:55.905Z,941.9
2017-03-26T01:07:03.933Z,941.9
2017-03-26T01:08:12.017Z,941.9
2017-03-26T01:09:20.261Z,941.9
2017-03-26T01:10:28.225Z,941.9
2017-03-26T01:11:36.782Z,941.9
2017-03-26T01:12:44.364Z,941.9
2017-03-26T01:13:52.453Z,941.9
2017-03-26T01:15:00.762Z,942.0
2017-03-26T01:16:08.747Z,941.9
2017-03-26T01:17:16.777Z,941.9
2017-03-26T01:18:24.805Z,942.0
2017-03-26T01:19:32.925Z,942.0
2017-03-26T01:20:41.041Z,942.0
2017-03-26T01:21:49.064Z,942.0
2017-03-26T01:22:57.210Z,942.0
2017-03-26T01:24:05.239Z,942.0
2017-03-26T01:25:13.334Z,941.9
2017-03-26T01:26:21.415Z,941.9
2017-03-26T01:27:29.504Z,942.0
2017-03-26T01:28:38.096Z,942.0
2017-03-26T01:29:45.680Z,941.9
2017-03-26T01:30:53.836Z,942.0
2017-03-26T01:32:01.973Z,942.0
2017-03-26T01:33:09.936Z,942.0
2017-03-26T01:34:18.080Z,941.9
2017-03-26T01:35:26.111Z,942.0
2017-03-26T01:36:34.201Z,941.9
2017-03-26T01:37:42.338Z,941.9
2017-03-26T01:38:50.375Z,941.9
2017-03-26T01:39:58.514Z,941.9
2017-03-26T01:41:06.550Z,941.8
2017-03-26T01:42:14.691Z,941.8
2017-03-26T01:43:22.715Z,941.9
2017-03-26T01:44:30.809Z,941.8
2017-03-26T01:45:39.397Z,941.9
2017-03-26T01:46:46.976Z,941.9
2017-03-26T01:47:55.120Z,941.8
2017-03-26T01:49:03.154Z,941.9
2017-03-26T01:50:11.241Z,941.8
2017-03-26T01:51:19.387Z,941.8
2017-03-26T01:52:27.421Z,941.8
2017-03-26T01:53:35.505Z,941.8
2017-03-26T01:54:43.594Z,941.8
2017-03-26T01:55:51.678Z,941.9
2017-03-26T01:56:59.824Z,941.8
2017-03-26T01:58:07.856Z,941.9
2017-03-26T01:59:15.939Z,941.8
2017-03-26T02:00:24.030Z,941.8
2017-03-26T02:01:32.126Z,941.8
2017-03-26T02:02:40.719Z,941.9
2017-03-26T02:03:48.414Z,941.9
2017-03-26T02:04:56.387Z,941.9
2017-03-26T02:06:04.472Z,941.8
2017-03-26T02:07:12.557Z,941.8
2017-03-26T02:08:20.704Z,941.8
2017-03-26T02:09:28.740Z,941.8
2017-03-26T02:10:36.820Z,941.7
2017-03-26T02:11:44.910Z,941.8
2017-03-26T02:12:53.000Z,941.7
2017-03-26T02:14:01.220Z,941.7
2017-03-26T02:15:09.224Z,941.8
2017-03-26T02:16:17.260Z,941.7
2017-03-26T02:17:25.352Z,941.7
2017-03-26T02:18:33.428Z,941.8
2017-03-26T02:19:42.189Z,941.7
2017-03-26T02:20:49.654Z,941.8
2017-03-26T02:21:57.689Z,941.7
2017-03-26T02:23:05.778Z,941.8
2017-03-26T02:24:13.868Z,941.9
2017-03-26T02:25:22.014Z,941.8
2017-03-26T02:26:30.043Z,941.8
2017-03-26T02:27:38.125Z,941.8
2017-03-26T02:28:46.222Z,941.9
2017-03-26T02:29:54.483Z,941.9
2017-03-26T02:31:02.455Z,941.9
2017-03-26T02:32:10.489Z,941.9
2017-03-26T02:33:18.578Z,941.9
2017-03-26T02:34:26.661Z,941.9
2017-03-26T02:35:35.253Z,941.9
2017-03-26T02:36:42.911Z,941.9
2017-03-26T02:37:50.926Z,941.9
2017-03-26T02:38:59.008Z,941.9
2017-03-26T02:40:07.096Z,941.9
2017-03-26T02:41:15.371Z,941.9
2017-03-26T02:42:23.775Z,941.9
2017-03-26T02:43:31.359Z,941.9
2017-03-26T02:44:39.455Z,941.9
2017-03-26T02:45:47.543Z,941.9
2017-03-26T02:46:55.672Z,941.9
2017-03-26T02:48:03.782Z,941.9
2017-03-26T02:49:11.807Z,941.9
2017-03-26T02:50:19.894Z,941.9
2017-03-26T02:51:28.037Z,941.9
2017-03-26T02:52:36.073Z,941.9
2017-03-26T02:53:44.213Z,941.9
2017-03-26T02:54:52.239Z,941.9
2017-03-26T02:56:00.331Z,941.8
2017-03-26T02:57:08.412Z,941.9
2017-03-26T02:58:16.498Z,941.9
2017-03-26T02:59:25.095Z,941.9
2017-03-26T03:00:32.675Z,941.9
2017-03-26T03:01:40.766Z,941.9
2017-03-26T03:02:49.029Z,941.9
2017-03-26T03:03:56.939Z,942.0
2017-03-26T03:05:05.083Z,941.9
2017-03-26T03:06:13.111Z,941.9
2017-03-26T03:07:21.257Z,941.9
2017-03-26T03:08:29.290Z,942.0
2017-03-26T03:09:37.372Z,941.9
2017-03-26T03:10:45.962Z,942.0
2017-03-26T03:11:53.549Z,942.0
2017-03-26T03:13:01.760Z,942.0
2017-03-26T03:14:09.839Z,942.0
2017-03-26T03:15:17.810Z,942.0
2017-03-26T03:16:25.954Z,942.0
2017-03-26T03:17:33.987Z,942.1
2017-03-26T03:18:42.070Z,942.1
2017-03-26T03:19:50.158Z,942.0
2017-03-26T03:20:58.255Z,942.1
2017-03-26T03:22:06.839Z,942.1
2017-03-26T03:23:14.479Z,942.1
2017-03-26T03:24:22.523Z,942.1
2017-03-26T03:25:30.604Z,942.1
2017-03-26T03:26:38.689Z,942.1
2017-03-26T03:27:46.836Z,942.1
2017-03-26T03:28:54.868Z,942.1
2017-03-26T03:30:02.954Z,942.1
2017-03-26T03:31:11.042Z,942.1
2017-03-26T03:32:19.132Z,942.1
2017-03-26T03:33:27.270Z,942.1
2017-03-26T03:34:35.355Z,942.1
2017-03-26T03:35:43.404Z,942.1
2017-03-26T03:36:51.494Z,942.1
2017-03-26T03:37:59.578Z,942.2
2017-03-26T03:39:07.787Z,942.2
2017-03-26T03:40:15.895Z,942.2
2017-03-26T03:41:23.842Z,942.3
2017-03-26T03:42:31.928Z,942.3
2017-03-26T03:43:40.026Z,942.3
2017-03-26T03:44:48.605Z,942.3
2017-03-26T03:45:56.186Z,942.3
2017-03-26T03:47:04.277Z,942.3
2017-03-26T03:48:12.366Z,942.4
2017-03-26T03:49:20.450Z,942.4
2017-03-26T03:50:28.597Z,942.3
2017-03-26T03:51:36.627Z,942.3
2017-03-26T03:52:44.717Z,942.3
2017-03-26T03:53:52.805Z,942.3
2017-03-26T03:55:01.185Z,942.4
2017-03-26T03:56:09.127Z,942.4
2017-03-26T03:57:17.066Z,942.4
2017-03-26T03:58:25.157Z,942.4
2017-03-26T03:59:33.246Z,942.3
2017-03-26T04:00:41.329Z,942.4
2017-03-26T04:01:49.918Z,942.4
2017-03-26T04:02:57.505Z,942.3
2017-03-26T04:04:05.592Z,942.3
2017-03-26T04:05:13.681Z,942.3
2017-03-26T04:06:21.770Z,942.4
2017-03-26T04:07:29.910Z,942.4
2017-03-26T04:08:37.941Z,942.3
2017-03-26T04:09:46.032Z,942.3
2017-03-26T04:10:54.180Z,942.4
2017-03-26T04:12:02.275Z,942.5
2017-03-26T04:13:10.844Z,942.5
2017-03-26T04:14:18.386Z,942.5
2017-03-26T04:15:26.473Z,942.5
2017-03-26T04:16:34.559Z,942.5
2017-03-26T04:17:42.640Z,942.5
2017-03-26T04:18:50.791Z,942.5
2017-03-26T04:19:58.822Z,942.5
2017-03-26T04:21:06.906Z,942.5
2017-03-26T04:22:15.000Z,942.6
2017-03-26T04:23:23.131Z,942.5
2017-03-26T04:24:31.242Z,942.6
2017-03-26T04:25:39.263Z,942.6
2017-03-26T04:26:47.859Z,942.6
2017-03-26T04:27:55.525Z,942.6
2017-03-26T04:29:03.529Z,942.6
2017-03-26T04:30:11.673Z,942.6
2017-03-26T04:31:19.707Z,942.6
2017-03-26T04:32:27.790Z,942.6
2017-03-26T04:33:35.905Z,942.5
2017-03-26T04:34:43.977Z,942.5
2017-03-26T04:35:52.115Z,942.6
2017-03-26T04:37:00.141Z,942.5
2017-03-26T04:38:08.390Z,942.5
2017-03-26T04:39:16.455Z,942.6
2017-03-26T04:40:24.410Z,942.5
2017-03-26T04:41:32.551Z,942.6
2017-03-26T04:42:41.104Z,942.6
2017-03-26T04:43:48.679Z,942.6
2017-03-26T04:44:56.773Z,942.6
2017-03-26T04:46:04.860Z,942.6
2017-03-26T04:47:13.003Z,942.7
2017-03-26T04:48:21.032Z,942.7
2017-03-26T04:49:29.208Z,942.7
2017-03-26T04:50:37.218Z,942.8
2017-03-26T04:51:45.300Z,942.8
2017-03-26T04:52:53.439Z,942.8
2017-03-26T04:54:01.472Z,942.8
2017-03-26T04:55:09.561Z,942.9
2017-03-26T04:56:17.644Z,942.9
2017-03-26T04:57:25.730Z,942.9
2017-03-26T04:58:33.883Z,942.9
2017-03-26T04:59:41.966Z,943.0
2017-03-26T05:00:50.031Z,943.0
2017-03-26T05:01:58.085Z,943.0
2017-03-26T05:03:06.174Z,943.0
2017-03-26T05:04:14.767Z,943.0
2017-03-26T05:05:22.503Z,943.0
2017-03-26T05:06:30.436Z,943.0
2017-03-26T05:07:38.532Z,943.1
2017-03-26T05:08:46.617Z,943.1
2017-03-26T05:09:54.764Z,943.0
2017-03-26T05:11:02.797Z,943.1
2017-03-26T05:12:10.893Z,943.1
2017-03-26T05:13:18.970Z,943.2
2017-03-26T05:14:27.113Z,943.2
2017-03-26T05:15:35.727Z,943.2
2017-03-26T05:16:43.234Z,943.2
2017-03-26T05:17:51.328Z,943.2
2017-03-26T05:18:59.415Z,943.2
2017-03-26T05:20:07.496Z,943.2
2017-03-26T05:21:15.645Z,943.2
2017-03-26T05:22:23.675Z,943.3
2017-03-26T05:23:31.761Z,943.3
2017-03-26T05:24:39.846Z,943.3
2017-03-26T05:25:47.936Z,943.4
2017-03-26T05:26:56.218Z,943.4
2017-03-26T05:28:04.110Z,943.5
2017-03-26T05:29:12.201Z,943.5
2017-03-26T05:30:20.792Z,943.5
2017-03-26T05:31:28.372Z,943.5
2017-03-26T05:32:36.516Z,943.5
2017-03-26T05:33:44.557Z,943.5
2017-03-26T05:34:52.643Z,943.5
2017-03-26T05:36:00.727Z,943.5
2017-03-26T05:37:08.968Z,943.5
2017-03-26T05:38:17.128Z,943.5
2017-03-26T05:39:24.991Z,943.5
2017-03-26T05:40:33.079Z,943.5
2017-03-26T05:41:41.161Z,943.6
2017-03-26T05:42:49.252Z,943.5
2017-03-26T05:43:57.841Z,943.5
2017-03-26T05:45:05.426Z,943.5
2017-03-26T05:46:13.571Z,943.5
2017-03-26T05:47:21.598Z,943.6
2017-03-26T05:48:29.867Z,943.6
2017-03-26T05:49:37.841Z,943.6
2017-03-26T05:50:45.862Z,943.6
2017-03-26T05:51:53.947Z,943.6
2017-03-26T05:53:02.036Z,943.6
2017-03-26T05:54:10.150Z,943.6
2017-03-26T05:55:18.273Z,943.6
2017-03-26T05:56:26.302Z,943.7
2017-03-26T05:57:34.397Z,943.7
2017-03-26T05:58:42.544Z,943.8
2017-03-26T05:59:50.707Z,943.8
2017-03-26T06:00:59.167Z,943.8
2017-03-26T06:02:06.804Z,943.8
2017-03-26T06:03:14.835Z,943.8
2017-03-26T06:04:22.920Z,943.8
2017-03-26T06:05:31.016Z,943.8
2017-03-26T06:06:39.159Z,943.8
2017-03-26T06:07:47.192Z,943.8
2017-03-26T06:08:55.281Z,943.8
2017-03-26T06:10:03.456Z,943.8
2017-03-26T06:11:11.458Z,943.8
2017-03-26T06:12:19.604Z,943.8
2017-03-26T06:13:27.638Z,943.8
2017-03-26T06:14:35.729Z,943.9
2017-03-26T06:15:43.815Z,943.9
2017-03-26T06:16:51.908Z,943.9
2017-03-26T06:18:00.050Z,944.0
2017-03-26T06:19:08.082Z,944.0
2017-03-26T06:20:16.202Z,944.0
2017-03-26T06:21:24.268Z,944.0
2017-03-26T06:22:32.348Z,944.0
2017-03-26T06:23:40.943Z,944.0
2017-03-26T06:24:48.567Z,944.0
2017-03-26T06:25:56.732Z,944.1
2017-03-26T06:27:04.716Z,944.1
2017-03-26T06:28:12.802Z,944.1
2017-03-26T06:29:20.948Z,944.1
2017-03-26T06:30:28.980Z,944.1
2017-03-26T06:31:37.061Z,944.1
2017-03-26T06:32:45.157Z,944.1
2017-03-26T06:33:53.293Z,944.1
2017-03-26T06:35:01.387Z,944.1
2017-03-26T06:36:09.446Z,944.2
2017-03-26T06:37:17.504Z,944.2
2017-03-26T06:38:25.590Z,944.2
2017-03-26T06:39:33.677Z,944.1
2017-03-26T06:40:41.827Z,944.2
2017-03-26T06:41:49.896Z,944.2
2017-03-26T06:42:57.978Z,944.2
2017-03-26T06:44:06.034Z,944.2
2017-03-26T06:45:14.130Z,944.3
2017-03-26T06:46:22.268Z,944.2
2017-03-26T06:47:30.453Z,944.2
2017-03-26T06:48:38.390Z,944.2
2017-03-26T06:49:46.985Z,944.2
2017-03-26T06:50:54.566Z,944.2
2017-03-26T06:52:02.715Z,944.2
2017-03-26T06:53:10.747Z,944.2
2017-03-26T06:54:18.828Z,944.2
2017-03-26T06:55:26.918Z,944.2
2017-03-26T06:56:35.004Z,944.2
2017-03-26T06:57:43.307Z,944.2
2017-03-26T06:58:51.226Z,944.2
2017-03-26T06:59:59.265Z,944.2
2017-03-26T07:01:07.352Z,944.3
2017-03-26T07:02:15.439Z,944.3
2017-03-26T07:03:23.578Z,944.3
2017-03-26T07:04:31.613Z,944.4
2017-03-26T07:05:40.207Z,944.4
2017-03-26T07:06:47.784Z,944.4
2017-03-26T07:07:55.876Z,944.4
2017-03-26T07:09:04.170Z,944.4
2017-03-26T07:10:12.050Z,944.4
2017-03-26T07:11:20.140Z,944.4
2017-03-26T07:12:28.383Z,944.5
2017-03-26T07:13:36.327Z,944.5
2017-03-26T07:14:44.463Z,944.6
2017-03-26T07:15:52.497Z,944.5
2017-03-26T07:17:00.582Z,944.5
2017-03-26T07:18:08.672Z,944.5
2017-03-26T07:19:16.844Z,944.5
2017-03-26T07:20:25.443Z,944.5
2017-03-26T07:21:32.984Z,944.5
2017-03-26T07:22:41.021Z,944.5
2017-03-26T07:23:49.113Z,944.5
2017-03-26T07:24:57.200Z,944.6
2017-03-26T07:26:05.341Z,944.6
2017-03-26T07:27:13.381Z,944.6
2017-03-26T07:28:21.461Z,944.6
2017-03-26T07:29:29.550Z,944.6
2017-03-26T07:30:37.632Z,944.6
2017-03-26T07:31:45.779Z,944.6
2017-03-26T07:32:53.842Z,944.7
2017-03-26T07:34:01.893Z,944.7
2017-03-26T07:35:10.124Z,944.7
2017-03-26T07:36:18.068Z,944.7
2017-03-26T07:37:26.213Z,944.8
2017-03-26T07:38:34.243Z,944.7
2017-03-26T07:39:42.333Z,944.7
2017-03-26T07:40:50.420Z,944.7
2017-03-26T07:41:58.506Z,944.7
2017-03-26T07:43:06.654Z,944.8
2017-03-26T07:44:14.686Z,944.7
2017-03-26T07:45:22.839Z,944.8
2017-03-26T07:46:30.923Z,944.8
2017-03-26T07:47:38.951Z,944.8
2017-03-26T07:48:47.092Z,944.8
2017-03-26T07:49:55.204Z,944.8
2017-03-26T07:51:03.411Z,944.8
2017-03-26T07:52:11.300Z,944.7
2017-03-26T07:53:19.443Z,944.7
2017-03-26T07:54:27.976Z,944.7
2017-03-26T07:55:35.561Z,944.6
2017-03-26T07:56:43.734Z,944.6
2017-03-26T07:57:51.746Z,944.6
2017-03-26T07:58:59.820Z,944.7
2017-03-26T08:00:07.962Z,944.7
2017-03-26T08:01:16.020Z,944.7
2017-03-26T08:02:24.098Z,944.7
2017-03-26T08:03:32.172Z,944.7
2017-03-26T08:04:40.266Z,944.7
2017-03-26T08:05:48.392Z,944.7
2017-03-26T08:06:56.438Z,944.6
2017-03-26T08:08:04.518Z,944.6
2017-03-26T08:09:12.659Z,944.7
2017-03-26T08:10:20.723Z,944.7
2017-03-26T08:11:28.842Z,944.7
2017-03-26T08:12:36.877Z,944.6
2017-03-26T08:13:44.980Z,944.6
2017-03-26T08:14:53.198Z,944.6
2017-03-26T08:16:01.142Z,944.6
2017-03-26T08:17:09.325Z,944.6
2017-03-26T08:18:17.364Z,944.6
2017-03-26T08:19:25.391Z,944.6
2017-03-26T08:20:33.485Z,944.6
2017-03-26T08:21:41.569Z,944.6
2017-03-26T08:22:50.346Z,944.7
2017-03-26T08:23:57.925Z,944.7
2017-03-26T08:25:05.945Z,944.7
2017-03-26T08:26:13.915Z,944.8
2017-03-26T08:27:22.003Z,944.8
2017-03-26T08:28:30.144Z,944.8
2017-03-26T08:29:38.199Z,944.9
2017-03-26T08:30:46.265Z,944.9
2017-03-26T08:31:54.352Z,944.9
2017-03-26T08:33:02.432Z,944.9
2017-03-26T08:34:10.736Z,944.9
2017-03-26T08:35:18.609Z,944.9
2017-03-26T08:36:26.701Z,944.8
2017-03-26T08:37:34.783Z,944.8
2017-03-26T08:38:42.878Z,944.8
2017-03-26T08:39:51.018Z,944.8
2017-03-26T08:40:59.551Z,944.8
2017-03-26T08:42:07.130Z,944.8
2017-03-26T08:43:15.223Z,944.8
2017-03-26T08:44:23.436Z,944.8
2017-03-26T08:45:31.461Z,944.8
2017-03-26T08:46:39.487Z,944.8
2017-03-26T08:47:47.573Z,944.8
2017-03-26T08:48:55.656Z,944.8
2017-03-26T08:50:03.747Z,944.9
2017-03-26T08:51:12.336Z,944.9
2017-03-26T08:52:19.915Z,944.9
2017-03-26T08:53:28.046Z,944.9
2017-03-26T08:54:36.092Z,944.9
2017-03-26T08:55:44.218Z,944.9
2017-03-26T08:56:52.434Z,944.9
2017-03-26T08:58:00.352Z,944.9
2017-03-26T08:59:08.436Z,944.9
2017-03-26T09:00:16.521Z,944.9
2017-03-26T09:01:24.607Z,944.9
2017-03-26T09:02:32.753Z,944.8
2017-03-26T09:03:40.790Z,944.8
2017-03-26T09:04:48.868Z,944.8
2017-03-26T09:05:57.044Z,944.8
2017-03-26T09:07:05.114Z,944.8
2017-03-26T09:08:13.185Z,944.8
2017-03-26T09:09:21.215Z,944.8
2017-03-26T09:10:29.455Z,944.8
2017-03-26T09:11:37.396Z,944.8
2017-03-26T09:12:45.532Z,944.8
2017-03-26T09:13:53.623Z,944.8
2017-03-26T09:15:01.652Z,944.8
2017-03-26T09:16:09.741Z,944.8
2017-03-26T09:17:17.930Z,944.7
2017-03-26T09:18:25.917Z,944.7
2017-03-26T09:19:34.509Z,944.7
2017-03-26T09:20:42.090Z,944.8
2017-03-26T09:21:50.182Z,944.7
2017-03-26T09:22:58.273Z,944.7
2017-03-26T09:24:06.357Z,944.7
2017-03-26T09:25:14.496Z,944.7
2017-03-26T09:26:22.530Z,944.7
2017-03-26T09:27:30.723Z,944.7
2017-03-26T09:28:39.313Z,944.7
2017-03-26T09:29:46.791Z,944.7
2017-03-26T09:30:54.933Z,944.7
2017-03-26T09:32:02.961Z,944.7
2017-03-26T09:33:11.055Z,944.7
2017-03-26T09:34:19.138Z,944.7
2017-03-26T09:35:27.223Z,944.7
2017-03-26T09:36:35.365Z,944.7
2017-03-26T09:37:43.401Z,944.7
2017-03-26T09:38:51.487Z,944.7
2017-03-26T09:39:59.575Z,944.7
2017-03-26T09:41:07.661Z,944.7
2017-03-26T09:42:16.251Z,944.7
2017-03-26T09:43:23.834Z,944.7
2017-03-26T09:44:32.023Z,944.7
2017-03-26T09:45:40.002Z,944.8
2017-03-26T09:46:48.097Z,944.7
2017-03-26T09:47:56.241Z,944.7
2017-03-26T09:49:04.274Z,944.7
2017-03-26T09:50:12.397Z,944.7
2017-03-26T09:51:20.445Z,944.8
2017-03-26T09:52:28.530Z,944.8
2017-03-26T09:53:37.124Z,944.8
2017-03-26T09:54:44.887Z,944.8
2017-03-26T09:55:52.791Z,944.8
2017-03-26T09:57:00.882Z,944.8
2017-03-26T09:58:08.972Z,944.8
2017-03-26T09:59:17.108Z,944.9
2017-03-26T10:00:25.194Z,944.9
2017-03-26T10:01:33.229Z,944.9
2017-03-26T10:02:41.313Z,944.9
2017-03-26T10:03:49.401Z,944.9
2017-03-26T10:04:57.993Z,944.9
2017-03-26T10:06:05.572Z,944.9
2017-03-26T10:07:13.659Z,944.9
2017-03-26T10:08:21.742Z,944.9
2017-03-26T10:09:29.833Z,944.9
2017-03-26T10:10:38.828Z,944.9
2017-03-26T10:11:46.006Z,944.9
2017-03-26T10:12:54.092Z,945.0
2017-03-26T10:14:02.179Z,945.0
2017-03-26T10:15:10.266Z,945.0
2017-03-26T10:16:18.858Z,945.0
2017-03-26T10:17:26.441Z,945.0
2017-03-26T10:18:34.523Z,945.0
2017-03-26T10:19:42.604Z,945.0
2017-03-26T10:20:50.698Z,945.0
2017-03-26T10:21:58.838Z,945.0
2017-03-26T10:23:06.863Z,945.0
2017-03-26T10:24:14.951Z,945.0
2017-03-26T10:25:23.046Z,945.0
2017-03-26T10:26:31.161Z,945.0
2017-03-26T10:27:39.301Z,944.9
2017-03-26T10:28:47.302Z,944.9
2017-03-26T10:29:55.389Z,944.9
2017-03-26T10:31:03.474Z,944.9
2017-03-26T10:32:11.613Z,944.9
2017-03-26T10:33:19.703Z,944.9
2017-03-26T10:34:27.728Z,944.9
2017-03-26T10:35:35.822Z,944.9
2017-03-26T10:36:43.906Z,945.0
2017-03-26T10:37:52.037Z,945.0
2017-03-26T10:39:00.143Z,945.0
2017-03-26T10:40:08.167Z,945.0
2017-03-26T10:41:16.257Z,945.0
2017-03-26T10:42:24.516Z,945.0
2017-03-26T10:43:32.424Z,945.0
2017-03-26T10:44:41.021Z,945.0
2017-03-26T10:45:48.603Z,945.0
2017-03-26T10:46:56.686Z,945.0
2017-03-26T10:48:04.853Z,945.0
2017-03-26T10:49:12.864Z,945.0
2017-03-26T10:50:21.003Z,945.0
2017-03-26T10:51:29.029Z,945.0
2017-03-26T10:52:37.118Z,945.0
2017-03-26T10:53:45.358Z,945.0
2017-03-26T10:54:53.287Z,945.0
2017-03-26T10:56:01.885Z,945.0
2017-03-26T10:57:09.465Z,945.0
2017-03-26T10:58:17.549Z,945.0
2017-03-26T10:59:25.638Z,945.0
2017-03-26T11:00:33.729Z,945.0
2017-03-26T11:01:41.871Z,945.0
2017-03-26T11:02:49.901Z,945.0
2017-03-26T11:03:58.200Z,945.0
2017-03-26T11:05:06.094Z,945.0
2017-03-26T11:06:14.168Z,944.9
2017-03-26T11:07:22.755Z,945.0
2017-03-26T11:08:30.341Z,944.9
2017-03-26T11:09:38.424Z,945.0
2017-03-26T11:10:46.511Z,944.9
2017-03-26T11:11:54.601Z,944.9
2017-03-26T11:13:02.741Z,944.9
2017-03-26T11:14:10.779Z,944.9
2017-03-26T11:15:18.984Z,944.9
2017-03-26T11:16:26.952Z,944.9
2017-03-26T11:17:35.039Z,944.9
2017-03-26T11:18:44.759Z,944.9
2017-03-26T11:19:51.275Z,944.9
2017-03-26T11:20:59.297Z,944.9
2017-03-26T11:22:07.379Z,944.8
2017-03-26T11:23:15.466Z,944.9
2017-03-26T11:24:23.613Z,944.9
2017-03-26T11:25:31.716Z,944.8
2017-03-26T11:26:39.765Z,944.8
2017-03-26T11:27:47.820Z,944.8
2017-03-26T11:28:55.906Z,944.8
2017-03-26T11:30:04.240Z,944.8
2017-03-26T11:31:12.243Z,944.8
2017-03-26T11:32:20.168Z,944.8
2017-03-26T11:33:28.257Z,944.8
2017-03-26T11:34:36.337Z,944.8
2017-03-26T11:35:44.556Z,944.8
2017-03-26T11:36:52.523Z,944.8
2017-03-26T11:38:00.609Z,944.8
2017-03-26T11:39:08.692Z,944.8
2017-03-26T11:40:16.780Z,944.8
2017-03-26T11:41:25.103Z,944.8
2017-03-26T11:42:32.949Z,944.8
2017-03-26T11:43:41.039Z,944.8
2017-03-26T11:44:49.124Z,944.8
2017-03-26T11:45:57.206Z,944.8
2017-03-26T11:47:05.392Z,944.8
2017-03-26T11:48:13.382Z,944.8
2017-03-26T11:49:21.466Z,944.8
2017-03-26T11:50:29.550Z,944.8
2017-03-26T11:51:38.146Z,944.8
2017-03-26T11:52:45.979Z,944.8
2017-03-26T11:53:53.813Z,944.8
2017-03-26T11:55:01.892Z,944.8
2017-03-26T11:56:10.337Z,944.8
2017-03-26T11:57:18.066Z,944.8
2017-03-26T11:58:27.992Z,944.8
2017-03-26T11:59:34.442Z,944.6
2017-03-26T12:00:42.610Z,944.6
2017-03-26T12:01:50.708Z,944.6
2017-03-26T12:02:58.496Z,944.6
2017-03-26T12:04:06.637Z,944.7
2017-03-26T12:05:14.672Z,944.7
2017-03-26T12:06:22.753Z,944.6
2017-03-26T12:07:30.899Z,944.6
2017-03-26T12:08:38.947Z,944.6
2017-03-26T12:09:47.066Z,944.6
2017-03-26T12:10:55.099Z,944.5
2017-03-26T12:12:03.193Z,944.5
2017-03-26T12:13:11.304Z,944.6
2017-03-26T12:14:19.473Z,944.5
2017-03-26T12:15:27.954Z,944.6
2017-03-26T12:16:35.534Z,944.6
2017-03-26T12:17:43.722Z,944.5
2017-03-26T12:18:51.708Z,944.6
2017-03-26T12:19:59.794Z,944.6
2017-03-26T12:21:07.933Z,944.6
2017-03-26T12:22:15.962Z,944.6
2017-03-26T12:23:24.110Z,944.6
2017-03-26T12:24:32.223Z,944.6
2017-03-26T12:25:40.222Z,944.6
2017-03-26T12:26:48.370Z,944.5
2017-03-26T12:27:56.397Z,944.5
2017-03-26T12:29:04.493Z,944.6
2017-03-26T12:30:12.688Z,944.6
2017-03-26T12:31:20.666Z,944.6
2017-03-26T12:32:28.810Z,944.6
2017-03-26T12:33:36.833Z,944.6
2017-03-26T12:34:44.924Z,944.6
2017-03-26T12:35:53.016Z,944.7
2017-03-26T12:37:01.106Z,944.6
2017-03-26T12:38:09.683Z,944.6
2017-03-26T12:39:17.327Z,944.5
2017-03-26T12:40:25.514Z,944.5
2017-03-26T12:41:33.443Z,944.5
2017-03-26T12:42:41.539Z,944.6
2017-03-26T12:43:49.674Z,944.6
2017-03-26T12:44:58.046Z,944.7
2017-03-26T12:46:06.249Z,944.7
2017-03-26T12:47:14.327Z,944.6
2017-03-26T12:48:21.960Z,944.7
2017-03-26T12:49:30.547Z,944.7
2017-03-26T12:50:38.234Z,944.7
2017-03-26T12:51:46.304Z,944.7
2017-03-26T12:52:54.309Z,944.6
2017-03-26T12:54:02.393Z,944.6
2017-03-26T12:55:10.536Z,944.6
2017-03-26T12:56:18.565Z,944.6
2017-03-26T12:57:26.645Z,944.6
2017-03-26T12:58:34.735Z,944.6
2017-03-26T12:59:42.821Z,944.7
2017-03-26T13:00:51.404Z,944.7
2017-03-26T13:01:59.083Z,944.7
2017-03-26T13:03:07.083Z,944.7
2017-03-26T13:04:15.166Z,944.6
2017-03-26T13:05:23.245Z,944.7
2017-03-26T13:06:31.388Z,944.7
2017-03-26T13:07:39.419Z,944.7
2017-03-26T13:08:47.500Z,944.7
2017-03-26T13:09:55.587Z,944.6
2017-03-26T13:11:04.180Z,944.6
2017-03-26T13:12:11.962Z,944.6
2017-03-26T13:13:19.966Z,944.6
2017-03-26T13:14:27.939Z,944.6
2017-03-26T13:15:36.019Z,944.6
2017-03-26T13:16:44.111Z,944.6
2017-03-26T13:17:52.251Z,944.6
2017-03-26T13:19:00.277Z,944.6
2017-03-26T13:20:08.359Z,944.6
2017-03-26T13:21:16.446Z,944.6
2017-03-26T13:22:24.540Z,944.6
2017-03-26T13:23:33.298Z,944.5
2017-03-26T13:24:40.701Z,944.5
2017-03-26T13:25:48.789Z,944.6
2017-03-26T13:26:56.934Z,944.5
2017-03-26T13:28:04.962Z,944.6
2017-03-26T13:29:13.101Z,944.5
2017-03-26T13:30:21.136Z,944.6
2017-03-26T13:31:29.220Z,944.6
2017-03-26T13:32:37.302Z,944.6
2017-03-26T13:33:45.435Z,944.5
2017-03-26T13:34:54.040Z,944.6
2017-03-26T13:36:01.577Z,944.6
2017-03-26T13:37:09.649Z,944.5
2017-03-26T13:38:17.738Z,944.6
2017-03-26T13:39:25.822Z,944.5
2017-03-26T13:40:33.961Z,944.5
2017-03-26T13:41:41.995Z,944.5
2017-03-26T13:42:50.586Z,944.5
2017-03-26T13:43:58.166Z,944.4
2017-03-26T13:45:06.331Z,944.4
2017-03-26T13:46:14.401Z,944.4
2017-03-26T13:47:22.428Z,944.4
2017-03-26T13:48:30.512Z,944.4
2017-03-26T13:49:38.600Z,944.4
2017-03-26T13:50:46.693Z,944.4
2017-03-26T13:51:54.828Z,944.4
2017-03-26T13:53:02.875Z,944.4
2017-03-26T13:54:10.946Z,944.4
2017-03-26T13:55:19.033Z,944.4
2017-03-26T13:56:27.213Z,944.4
2017-03-26T13:57:35.709Z,944.4
2017-03-26T13:58:43.350Z,944.4
2017-03-26T13:59:51.380Z,944.4
2017-03-26T14:00:59.465Z,944.4
2017-03-26T14:02:07.550Z,944.3
2017-03-26T14:03:15.690Z,944.4
2017-03-26T14:04:23.717Z,944.4
2017-03-26T14:05:31.804Z,944.3
2017-03-26T14:06:39.916Z,944.4
2017-03-26T14:07:47.979Z,944.4
2017-03-26T14:08:56.124Z,944.4
2017-03-26T14:10:04.152Z,944.5
2017-03-26T14:11:12.239Z,944.4
2017-03-26T14:12:20.327Z,944.4
2017-03-26T14:13:28.419Z,944.3
2017-03-26T14:14:36.617Z,944.4
2017-03-26T14:15:44.601Z,944.3
2017-03-26T14:16:52.685Z,944.4
2017-03-26T14:18:00.837Z,944.4
2017-03-26T14:19:08.855Z,944.5
2017-03-26T14:20:17.442Z,944.4
2017-03-26T14:21:25.032Z,944.5
2017-03-26T14:22:33.108Z,944.5
2017-03-26T14:23:41.197Z,944.4
2017-03-26T14:24:49.285Z,944.5
2017-03-26T14:25:57.875Z,944.5
2017-03-26T14:27:05.458Z,944.5
2017-03-26T14:28:13.546Z,944.5
2017-03-26T14:29:21.710Z,944.5
2017-03-26T14:30:29.779Z,944.5
2017-03-26T14:31:37.861Z,944.5
2017-03-26T14:32:45.894Z,944.5
2017-03-26T14:33:53.975Z,944.4
2017-03-26T14:35:02.065Z,944.4
2017-03-26T14:36:10.154Z,944.4